Etusivu
METAR-TAF:

METAR-TAF

Lentoasemat :

Nuevo Laredo, Meksiko

Leveyspiiri: 27-26N, Pituuspiiri: 099-34W, korkeus merenpinnasta: 148 m

Tämänhetkinen sää

Tämä raportti tehtiin 1 tunti ja 3 minuuttia sitten, kello 13.41 UTC
Tuuli 6 kn kaakosta
Lämpötila 26°C
Kosteus 84%
Ilmanpaine 1013 hPa
Näkyvyys: 9.7 km
selkeää

METAR: MMNL 061341Z 14006KT 6SM SKC 26/23 A2992 RMK HZY ISOL CU

Aika: 09:44 (14:44 UTC)

Sääennuste

Tämä raportti tehtiin 9 tuntia ja 33 minuuttia sitten, kello 05.11 UTC
Ennuste voimassa 06. päivästä klo 06 UTC - 07. päivään klo 06 UTC
Tuuli 5 kn kaakosta
Näkyvyys: 10 km
Hajanaisia pilviä 2000 ft:n korkeudessa
From 06. päivästä klo 1600 UTC
Tuuli 10 kn kaakosta
Näkyvyys: 10 km
selkeää
From 07. päivästä klo 0200 UTC
Tuuli 5 kn kaakosta
Näkyvyys: 10 km
Hajanaisia pilviä 2000 ft:n korkeudessa

TAF: MMNL 060511Z 0606/0706 13005KT P6SM SCT020 FM061600 13010KT P6SM SKC FM070200 13005KT P6SM SCT020

Säähavainnot ja -ennusteet yli 4000 lentoasemalta (METAR- ja TAF-raportit).

Käytössä olevat sääasemat on merkitty karttaan keltaisilla ja punaisilla pisteillä.

Aseta hiiri pisteen päälle nähdäksesi sääaseman nimen.

Klikkaa sitten nähdäksesi säähavainnot ja -ennusteet.

Kartan vaihtaminen: klikkaa mustalla rastilla varustettuja vihreitä pisteitä, niin voit zoomata sisään; viivalla varustettua vihreää pistettä, niin voit zoomata ulos tai vihreitä nuolia, niin pääset viereisille kartoille.


METAR-TAF: